sensor_id;sensor_type;location;lat;lon;timestamp;P1;durP1;ratioP1;P2;durP2;ratioP2
21671;SDS011;10997;52.242;8.168;2022-10-16T00:03:16;16.05;;;9.50;;
21671;SDS011;10997;52.242;8.168;2022-10-16T00:08:17;15.38;;;9.25;;
21671;SDS011;10997;52.242;8.168;2022-10-16T00:13:17;14.88;;;9.50;;
21671;SDS011;10997;52.242;8.168;2022-10-16T00:18:19;14.18;;;9.70;;
21671;SDS011;10997;52.242;8.168;2022-10-16T00:23:20;17.33;;;10.13;;
21671;SDS011;10997;52.242;8.168;2022-10-16T00:28:22;14.50;;;9.95;;
21671;SDS011;10997;52.242;8.168;2022-10-16T00:33:22;16.63;;;10.48;;
21671;SDS011;10997;52.242;8.168;2022-10-16T00:38:24;19.55;;;10.93;;
21671;SDS011;10997;52.242;8.168;2022-10-16T00:43:41;18.63;;;11.32;;
21671;SDS011;10997;52.242;8.168;2022-10-16T00:48:45;18.75;;;12.02;;
21671;SDS011;10997;52.242;8.168;2022-10-16T00:54:04;18.40;;;11.98;;
21671;SDS011;10997;52.242;8.168;2022-10-16T01:04:20;19.92;;;11.93;;
21671;SDS011;10997;52.242;8.168;2022-10-16T01:09:24;21.63;;;13.65;;
21671;SDS011;10997;52.242;8.168;2022-10-16T01:14:52;23.88;;;12.77;;
21671;SDS011;10997;52.242;8.168;2022-10-16T01:25:19;23.15;;;13.38;;
21671;SDS011;10997;52.242;8.168;2022-10-16T01:30:30;22.75;;;14.45;;
21671;SDS011;10997;52.242;8.168;2022-10-16T01:35:37;26.10;;;14.90;;
21671;SDS011;10997;52.242;8.168;2022-10-16T01:40:42;21.63;;;15.65;;
21671;SDS011;10997;52.242;8.168;2022-10-16T01:45:46;26.60;;;16.15;;
21671;SDS011;10997;52.242;8.168;2022-10-16T01:50:59;28.13;;;19.15;;
21671;SDS011;10997;52.242;8.168;2022-10-16T01:56:06;28.55;;;20.05;;
21671;SDS011;10997;52.242;8.168;2022-10-16T02:01:09;29.88;;;19.17;;
21671;SDS011;10997;52.242;8.168;2022-10-16T02:06:13;23.48;;;17.02;;
21671;SDS011;10997;52.242;8.168;2022-10-16T02:11:14;26.95;;;17.02;;
21671;SDS011;10997;52.242;8.168;2022-10-16T02:16:14;24.70;;;15.88;;
21671;SDS011;10997;52.242;8.168;2022-10-16T02:21:17;31.40;;;16.08;;
21671;SDS011;10997;52.242;8.168;2022-10-16T02:26:28;28.83;;;15.23;;
21671;SDS011;10997;52.242;8.168;2022-10-16T02:31:36;23.95;;;15.00;;
21671;SDS011;10997;52.242;8.168;2022-10-16T02:36:41;24.40;;;15.50;;
21671;SDS011;10997;52.242;8.168;2022-10-16T02:41:43;23.17;;;14.90;;
21671;SDS011;10997;52.242;8.168;2022-10-16T02:46:44;22.92;;;15.18;;
21671;SDS011;10997;52.242;8.168;2022-10-16T02:51:44;24.73;;;15.48;;
21671;SDS011;10997;52.242;8.168;2022-10-16T02:56:45;21.63;;;14.95;;
21671;SDS011;10997;52.242;8.168;2022-10-16T03:01:46;20.25;;;14.32;;
21671;SDS011;10997;52.242;8.168;2022-10-16T03:06:46;23.13;;;15.30;;
21671;SDS011;10997;52.242;8.168;2022-10-16T03:11:47;22.77;;;14.82;;
21671;SDS011;10997;52.242;8.168;2022-10-16T03:16:47;21.88;;;14.13;;
21671;SDS011;10997;52.242;8.168;2022-10-16T03:21:48;19.83;;;13.23;;
21671;SDS011;10997;52.242;8.168;2022-10-16T03:26:49;20.95;;;13.50;;
21671;SDS011;10997;52.242;8.168;2022-10-16T03:31:49;20.80;;;13.10;;
21671;SDS011;10997;52.242;8.168;2022-10-16T03:36:50;20.77;;;13.45;;
21671;SDS011;10997;52.242;8.168;2022-10-16T03:41:51;20.65;;;13.32;;
21671;SDS011;10997;52.242;8.168;2022-10-16T03:46:52;18.95;;;12.57;;
21671;SDS011;10997;52.242;8.168;2022-10-16T03:51:52;20.60;;;11.82;;
21671;SDS011;10997;52.242;8.168;2022-10-16T03:56:53;19.10;;;11.88;;
21671;SDS011;10997;52.242;8.168;2022-10-16T04:01:53;15.15;;;11.82;;
21671;SDS011;10997;52.242;8.168;2022-10-16T04:06:54;16.77;;;12.30;;
21671;SDS011;10997;52.242;8.168;2022-10-16T04:11:55;19.15;;;12.02;;
21671;SDS011;10997;52.242;8.168;2022-10-16T04:16:55;17.67;;;11.73;;
21671;SDS011;10997;52.242;8.168;2022-10-16T04:21:56;20.00;;;11.32;;
21671;SDS011;10997;52.242;8.168;2022-10-16T04:26:57;16.23;;;11.13;;
21671;SDS011;10997;52.242;8.168;2022-10-16T04:31:57;18.42;;;11.57;;
21671;SDS011;10997;52.242;8.168;2022-10-16T04:36:58;15.27;;;11.13;;
21671;SDS011;10997;52.242;8.168;2022-10-16T04:41:59;16.52;;;10.25;;
21671;SDS011;10997;52.242;8.168;2022-10-16T04:47:00;15.20;;;9.77;;
21671;SDS011;10997;52.242;8.168;2022-10-16T04:52:01;13.85;;;9.63;;
21671;SDS011;10997;52.242;8.168;2022-10-16T04:57:01;13.57;;;9.25;;
21671;SDS011;10997;52.242;8.168;2022-10-16T05:02:02;13.60;;;9.38;;
21671;SDS011;10997;52.242;8.168;2022-10-16T05:07:03;14.60;;;8.70;;
21671;SDS011;10997;52.242;8.168;2022-10-16T05:12:03;12.70;;;8.70;;
21671;SDS011;10997;52.242;8.168;2022-10-16T05:17:04;11.38;;;8.38;;
21671;SDS011;10997;52.242;8.168;2022-10-16T05:22:05;12.07;;;8.27;;
21671;SDS011;10997;52.242;8.168;2022-10-16T05:27:06;12.90;;;8.25;;
21671;SDS011;10997;52.242;8.168;2022-10-16T05:32:06;10.60;;;7.35;;
21671;SDS011;10997;52.242;8.168;2022-10-16T05:37:08;8.50;;;6.82;;
21671;SDS011;10997;52.242;8.168;2022-10-16T05:42:09;10.95;;;6.68;;
21671;SDS011;10997;52.242;8.168;2022-10-16T05:47:10;10.35;;;6.43;;
21671;SDS011;10997;52.242;8.168;2022-10-16T05:52:12;9.85;;;6.20;;
21671;SDS011;10997;52.242;8.168;2022-10-16T05:57:13;7.88;;;5.78;;
21671;SDS011;10997;52.242;8.168;2022-10-16T06:02:14;10.50;;;5.80;;
21671;SDS011;10997;52.242;8.168;2022-10-16T06:07:14;6.35;;;5.45;;
21671;SDS011;10997;52.242;8.168;2022-10-16T06:12:15;7.43;;;5.13;;
21671;SDS011;10997;52.242;8.168;2022-10-16T06:17:16;6.00;;;5.07;;
21671;SDS011;10997;52.242;8.168;2022-10-16T06:22:17;6.70;;;5.45;;
21671;SDS011;10997;52.242;8.168;2022-10-16T06:27:18;6.28;;;5.40;;
21671;SDS011;10997;52.242;8.168;2022-10-16T06:32:18;12.13;;;5.00;;
21671;SDS011;10997;52.242;8.168;2022-10-16T06:37:19;10.05;;;5.40;;
21671;SDS011;10997;52.242;8.168;2022-10-16T06:42:20;10.65;;;5.22;;
21671;SDS011;10997;52.242;8.168;2022-10-16T06:47:20;8.80;;;5.35;;
21671;SDS011;10997;52.242;8.168;2022-10-16T06:52:21;7.85;;;4.80;;
21671;SDS011;10997;52.242;8.168;2022-10-16T06:57:22;5.90;;;4.43;;
21671;SDS011;10997;52.242;8.168;2022-10-16T07:02:24;7.45;;;4.57;;
21671;SDS011;10997;52.242;8.168;2022-10-16T07:07:24;5.63;;;3.70;;
21671;SDS011;10997;52.242;8.168;2022-10-16T07:12:26;4.78;;;3.88;;
21671;SDS011;10997;52.242;8.168;2022-10-16T07:17:27;6.53;;;3.55;;
21671;SDS011;10997;52.242;8.168;2022-10-16T07:22:28;4.80;;;3.50;;
21671;SDS011;10997;52.242;8.168;2022-10-16T07:27:28;6.47;;;3.70;;
21671;SDS011;10997;52.242;8.168;2022-10-16T07:32:29;4.45;;;3.03;;
21671;SDS011;10997;52.242;8.168;2022-10-16T07:37:30;4.22;;;3.28;;
21671;SDS011;10997;52.242;8.168;2022-10-16T07:42:31;4.30;;;3.15;;
21671;SDS011;10997;52.242;8.168;2022-10-16T07:47:32;4.85;;;2.83;;
21671;SDS011;10997;52.242;8.168;2022-10-16T07:52:32;9.65;;;3.08;;
21671;SDS011;10997;52.242;8.168;2022-10-16T07:57:33;3.10;;;2.78;;
21671;SDS011;10997;52.242;8.168;2022-10-16T08:02:34;5.38;;;3.10;;
21671;SDS011;10997;52.242;8.168;2022-10-16T08:07:34;4.25;;;2.85;;
21671;SDS011;10997;52.242;8.168;2022-10-16T08:12:35;6.53;;;3.38;;
21671;SDS011;10997;52.242;8.168;2022-10-16T08:17:36;4.50;;;3.60;;
21671;SDS011;10997;52.242;8.168;2022-10-16T08:22:36;6.20;;;3.67;;
21671;SDS011;10997;52.242;8.168;2022-10-16T08:27:37;4.72;;;3.63;;
21671;SDS011;10997;52.242;8.168;2022-10-16T08:32:37;8.00;;;3.90;;
21671;SDS011;10997;52.242;8.168;2022-10-16T08:37:38;5.65;;;4.10;;
21671;SDS011;10997;52.242;8.168;2022-10-16T08:53:16;4.45;;;3.50;;
21671;SDS011;10997;52.242;8.168;2022-10-16T08:58:27;6.88;;;2.95;;
21671;SDS011;10997;52.242;8.168;2022-10-16T09:24:27;6.75;;;2.33;;
21671;SDS011;10997;52.242;8.168;2022-10-16T09:29:27;9.05;;;2.70;;
21671;SDS011;10997;52.242;8.168;2022-10-16T09:34:34;7.10;;;2.10;;
21671;SDS011;10997;52.242;8.168;2022-10-16T09:39:51;3.95;;;1.98;;
21671;SDS011;10997;52.242;8.168;2022-10-16T09:44:53;4.55;;;1.80;;
21671;SDS011;10997;52.242;8.168;2022-10-16T09:49:55;8.60;;;1.85;;
21671;SDS011;10997;52.242;8.168;2022-10-16T09:55:08;4.40;;;1.88;;
21671;SDS011;10997;52.242;8.168;2022-10-16T10:05:22;8.57;;;2.10;;
21671;SDS011;10997;52.242;8.168;2022-10-16T10:10:25;6.32;;;1.48;;
21671;SDS011;10997;52.242;8.168;2022-10-16T10:15:34;5.43;;;1.50;;
21671;SDS011;10997;52.242;8.168;2022-10-16T10:20:41;3.38;;;1.38;;
21671;SDS011;10997;52.242;8.168;2022-10-16T10:25:45;7.97;;;1.60;;
21671;SDS011;10997;52.242;8.168;2022-10-16T10:41:44;6.75;;;1.27;;
21671;SDS011;10997;52.242;8.168;2022-10-16T10:47:16;4.80;;;1.23;;
21671;SDS011;10997;52.242;8.168;2022-10-16T10:52:56;5.47;;;1.30;;
21671;SDS011;10997;52.242;8.168;2022-10-16T11:03:21;3.22;;;1.25;;
21671;SDS011;10997;52.242;8.168;2022-10-16T11:08:32;6.30;;;1.30;;
21671;SDS011;10997;52.242;8.168;2022-10-16T11:13:38;5.32;;;1.40;;
21671;SDS011;10997;52.242;8.168;2022-10-16T11:24:35;5.05;;;1.45;;
21671;SDS011;10997;52.242;8.168;2022-10-16T11:29:58;4.88;;;1.40;;
21671;SDS011;10997;52.242;8.168;2022-10-16T11:35:14;6.05;;;1.60;;
21671;SDS011;10997;52.242;8.168;2022-10-16T11:55:43;7.18;;;1.90;;
21671;SDS011;10997;52.242;8.168;2022-10-16T12:01:19;4.22;;;1.80;;
21671;SDS011;10997;52.242;8.168;2022-10-16T12:06:40;5.63;;;2.03;;
21671;SDS011;10997;52.242;8.168;2022-10-16T12:11:46;6.03;;;2.28;;
21671;SDS011;10997;52.242;8.168;2022-10-16T12:16:56;4.88;;;2.00;;
21671;SDS011;10997;52.242;8.168;2022-10-16T12:22:02;8.43;;;2.35;;
21671;SDS011;10997;52.242;8.168;2022-10-16T12:27:05;5.15;;;2.10;;
21671;SDS011;10997;52.242;8.168;2022-10-16T12:32:30;5.07;;;1.92;;
21671;SDS011;10997;52.242;8.168;2022-10-16T12:37:34;6.53;;;1.90;;
21671;SDS011;10997;52.242;8.168;2022-10-16T12:42:36;4.35;;;1.48;;
21671;SDS011;10997;52.242;8.168;2022-10-16T12:47:38;7.03;;;1.80;;
21671;SDS011;10997;52.242;8.168;2022-10-16T12:52:49;6.97;;;1.60;;
21671;SDS011;10997;52.242;8.168;2022-10-16T13:14:20;5.28;;;1.58;;
21671;SDS011;10997;52.242;8.168;2022-10-16T13:29:54;5.50;;;1.30;;
21671;SDS011;10997;52.242;8.168;2022-10-16T13:35:02;8.27;;;1.50;;
21671;SDS011;10997;52.242;8.168;2022-10-16T13:40:20;9.90;;;1.40;;
21671;SDS011;10997;52.242;8.168;2022-10-16T13:45:24;7.85;;;1.50;;
21671;SDS011;10997;52.242;8.168;2022-10-16T13:50:25;4.78;;;1.40;;
21671;SDS011;10997;52.242;8.168;2022-10-16T13:55:26;9.13;;;1.63;;
21671;SDS011;10997;52.242;8.168;2022-10-16T14:00:33;5.05;;;1.27;;
21671;SDS011;10997;52.242;8.168;2022-10-16T14:05:35;4.53;;;1.20;;
21671;SDS011;10997;52.242;8.168;2022-10-16T14:10:49;5.15;;;1.42;;
21671;SDS011;10997;52.242;8.168;2022-10-16T14:15:52;4.50;;;1.50;;
21671;SDS011;10997;52.242;8.168;2022-10-16T14:20:54;5.03;;;1.60;;
21671;SDS011;10997;52.242;8.168;2022-10-16T14:26:17;4.68;;;1.33;;
21671;SDS011;10997;52.242;8.168;2022-10-16T14:31:24;5.53;;;1.40;;
21671;SDS011;10997;52.242;8.168;2022-10-16T14:36:33;5.95;;;1.17;;
21671;SDS011;10997;52.242;8.168;2022-10-16T14:41:40;6.85;;;1.30;;
21671;SDS011;10997;52.242;8.168;2022-10-16T14:46:45;6.30;;;1.20;;
21671;SDS011;10997;52.242;8.168;2022-10-16T14:51:46;4.78;;;1.20;;
21671;SDS011;10997;52.242;8.168;2022-10-16T14:56:54;3.85;;;1.08;;
21671;SDS011;10997;52.242;8.168;2022-10-16T15:01:57;6.35;;;1.15;;
21671;SDS011;10997;52.242;8.168;2022-10-16T15:06:57;4.90;;;1.42;;
21671;SDS011;10997;52.242;8.168;2022-10-16T15:11:58;9.18;;;1.88;;
21671;SDS011;10997;52.242;8.168;2022-10-16T15:16:59;5.03;;;1.20;;
21671;SDS011;10997;52.242;8.168;2022-10-16T15:22:02;5.88;;;1.35;;
21671;SDS011;10997;52.242;8.168;2022-10-16T15:27:03;5.72;;;1.17;;
21671;SDS011;10997;52.242;8.168;2022-10-16T15:32:04;8.10;;;1.40;;
21671;SDS011;10997;52.242;8.168;2022-10-16T15:37:05;6.47;;;1.30;;
21671;SDS011;10997;52.242;8.168;2022-10-16T15:42:05;5.40;;;1.20;;
21671;SDS011;10997;52.242;8.168;2022-10-16T15:47:07;4.30;;;1.05;;
21671;SDS011;10997;52.242;8.168;2022-10-16T15:52:08;4.13;;;1.25;;
21671;SDS011;10997;52.242;8.168;2022-10-16T15:57:08;3.58;;;0.93;;
21671;SDS011;10997;52.242;8.168;2022-10-16T16:02:09;6.70;;;1.30;;
21671;SDS011;10997;52.242;8.168;2022-10-16T16:07:10;6.97;;;1.15;;
21671;SDS011;10997;52.242;8.168;2022-10-16T16:12:11;5.50;;;1.25;;
21671;SDS011;10997;52.242;8.168;2022-10-16T16:17:12;6.88;;;1.90;;
21671;SDS011;10997;52.242;8.168;2022-10-16T16:22:12;8.32;;;4.60;;
21671;SDS011;10997;52.242;8.168;2022-10-16T16:27:13;10.65;;;5.18;;
21671;SDS011;10997;52.242;8.168;2022-10-16T16:32:14;10.80;;;5.03;;
21671;SDS011;10997;52.242;8.168;2022-10-16T16:37:14;10.18;;;4.20;;
21671;SDS011;10997;52.242;8.168;2022-10-16T16:42:15;7.15;;;3.80;;
21671;SDS011;10997;52.242;8.168;2022-10-16T16:47:16;11.82;;;5.70;;
21671;SDS011;10997;52.242;8.168;2022-10-16T16:52:17;14.70;;;8.27;;
21671;SDS011;10997;52.242;8.168;2022-10-16T16:57:18;12.63;;;6.45;;
21671;SDS011;10997;52.242;8.168;2022-10-16T17:02:20;13.75;;;8.05;;
21671;SDS011;10997;52.242;8.168;2022-10-16T17:07:20;17.63;;;11.32;;
21671;SDS011;10997;52.242;8.168;2022-10-16T17:12:28;10.73;;;5.80;;
21671;SDS011;10997;52.242;8.168;2022-10-16T17:17:30;7.78;;;5.40;;
21671;SDS011;10997;52.242;8.168;2022-10-16T17:22:30;11.05;;;5.22;;
21671;SDS011;10997;52.242;8.168;2022-10-16T17:27:31;11.63;;;6.10;;
21671;SDS011;10997;52.242;8.168;2022-10-16T17:32:33;14.18;;;7.50;;
21671;SDS011;10997;52.242;8.168;2022-10-16T17:37:34;12.30;;;6.40;;
21671;SDS011;10997;52.242;8.168;2022-10-16T17:42:35;8.80;;;6.07;;
21671;SDS011;10997;52.242;8.168;2022-10-16T17:47:35;10.35;;;5.07;;
21671;SDS011;10997;52.242;8.168;2022-10-16T17:52:36;9.77;;;4.68;;
21671;SDS011;10997;52.242;8.168;2022-10-16T17:57:37;10.50;;;6.72;;
21671;SDS011;10997;52.242;8.168;2022-10-16T18:02:38;11.02;;;6.55;;
21671;SDS011;10997;52.242;8.168;2022-10-16T18:07:41;16.55;;;10.70;;
21671;SDS011;10997;52.242;8.168;2022-10-16T18:12:42;16.90;;;8.23;;
21671;SDS011;10997;52.242;8.168;2022-10-16T18:17:42;15.30;;;7.30;;
21671;SDS011;10997;52.242;8.168;2022-10-16T18:22:43;15.02;;;6.90;;
21671;SDS011;10997;52.242;8.168;2022-10-16T18:27:44;9.23;;;5.93;;
21671;SDS011;10997;52.242;8.168;2022-10-16T18:32:44;12.63;;;4.47;;
21671;SDS011;10997;52.242;8.168;2022-10-16T18:37:45;13.70;;;8.70;;
21671;SDS011;10997;52.242;8.168;2022-10-16T18:42:46;11.25;;;6.45;;
21671;SDS011;10997;52.242;8.168;2022-10-16T18:47:46;9.70;;;4.93;;
21671;SDS011;10997;52.242;8.168;2022-10-16T18:52:47;10.15;;;3.40;;
21671;SDS011;10997;52.242;8.168;2022-10-16T18:57:48;10.15;;;3.53;;
21671;SDS011;10997;52.242;8.168;2022-10-16T19:02:49;14.38;;;11.55;;
21671;SDS011;10997;52.242;8.168;2022-10-16T19:07:49;18.13;;;8.13;;
21671;SDS011;10997;52.242;8.168;2022-10-16T19:12:51;13.77;;;6.95;;
21671;SDS011;10997;52.242;8.168;2022-10-16T19:17:51;15.57;;;9.30;;
21671;SDS011;10997;52.242;8.168;2022-10-16T19:22:52;10.15;;;6.25;;
21671;SDS011;10997;52.242;8.168;2022-10-16T19:27:55;16.85;;;10.05;;
21671;SDS011;10997;52.242;8.168;2022-10-16T19:32:56;10.60;;;5.22;;
21671;SDS011;10997;52.242;8.168;2022-10-16T19:37:57;8.60;;;5.18;;
21671;SDS011;10997;52.242;8.168;2022-10-16T19:42:58;8.38;;;4.82;;
21671;SDS011;10997;52.242;8.168;2022-10-16T19:47:58;8.27;;;4.75;;
21671;SDS011;10997;52.242;8.168;2022-10-16T19:52:59;10.27;;;5.45;;
21671;SDS011;10997;52.242;8.168;2022-10-16T19:58:00;11.40;;;6.15;;
21671;SDS011;10997;52.242;8.168;2022-10-16T20:03:00;10.25;;;6.68;;
21671;SDS011;10997;52.242;8.168;2022-10-16T20:08:02;17.88;;;8.23;;
21671;SDS011;10997;52.242;8.168;2022-10-16T20:13:03;22.55;;;15.50;;
21671;SDS011;10997;52.242;8.168;2022-10-16T20:18:04;30.35;;;16.27;;
21671;SDS011;10997;52.242;8.168;2022-10-16T20:23:04;17.48;;;11.18;;
21671;SDS011;10997;52.242;8.168;2022-10-16T20:28:06;33.35;;;19.60;;
21671;SDS011;10997;52.242;8.168;2022-10-16T20:33:08;16.25;;;10.02;;
21671;SDS011;10997;52.242;8.168;2022-10-16T20:38:10;13.30;;;9.02;;
21671;SDS011;10997;52.242;8.168;2022-10-16T20:43:12;24.13;;;16.40;;
21671;SDS011;10997;52.242;8.168;2022-10-16T20:48:15;11.02;;;9.13;;
21671;SDS011;10997;52.242;8.168;2022-10-16T20:53:15;13.27;;;8.82;;
21671;SDS011;10997;52.242;8.168;2022-10-16T20:58:16;11.13;;;8.07;;
21671;SDS011;10997;52.242;8.168;2022-10-16T21:03:17;12.73;;;8.82;;
21671;SDS011;10997;52.242;8.168;2022-10-16T21:08:18;16.00;;;12.68;;
21671;SDS011;10997;52.242;8.168;2022-10-16T21:13:18;12.00;;;9.45;;
21671;SDS011;10997;52.242;8.168;2022-10-16T21:18:19;24.98;;;19.75;;
21671;SDS011;10997;52.242;8.168;2022-10-16T21:23:19;15.70;;;12.48;;
21671;SDS011;10997;52.242;8.168;2022-10-16T21:28:20;14.40;;;10.95;;
21671;SDS011;10997;52.242;8.168;2022-10-16T21:33:21;20.77;;;15.10;;
21671;SDS011;10997;52.242;8.168;2022-10-16T21:38:23;10.65;;;9.52;;
21671;SDS011;10997;52.242;8.168;2022-10-16T21:43:24;12.93;;;8.38;;
21671;SDS011;10997;52.242;8.168;2022-10-16T21:48:24;11.00;;;9.02;;
21671;SDS011;10997;52.242;8.168;2022-10-16T21:53:25;10.52;;;8.93;;
21671;SDS011;10997;52.242;8.168;2022-10-16T21:58:26;9.65;;;8.07;;
21671;SDS011;10997;52.242;8.168;2022-10-16T22:03:26;10.52;;;8.30;;
21671;SDS011;10997;52.242;8.168;2022-10-16T22:08:28;10.15;;;8.57;;
21671;SDS011;10997;52.242;8.168;2022-10-16T22:13:29;10.45;;;8.93;;
21671;SDS011;10997;52.242;8.168;2022-10-16T22:18:30;11.45;;;9.15;;
21671;SDS011;10997;52.242;8.168;2022-10-16T22:23:31;12.23;;;9.18;;
21671;SDS011;10997;52.242;8.168;2022-10-16T22:28:31;10.68;;;9.07;;
21671;SDS011;10997;52.242;8.168;2022-10-16T22:33:32;11.27;;;8.05;;
21671;SDS011;10997;52.242;8.168;2022-10-16T22:38:33;10.77;;;8.73;;
21671;SDS011;10997;52.242;8.168;2022-10-16T22:43:39;9.63;;;8.10;;
21671;SDS011;10997;52.242;8.168;2022-10-16T22:48:43;11.55;;;8.65;;
21671;SDS011;10997;52.242;8.168;2022-10-16T22:53:44;12.35;;;8.70;;
21671;SDS011;10997;52.242;8.168;2022-10-16T22:58:46;10.02;;;8.48;;
21671;SDS011;10997;52.242;8.168;2022-10-16T23:03:47;11.80;;;8.88;;
21671;SDS011;10997;52.242;8.168;2022-10-16T23:08:54;10.15;;;8.88;;
21671;SDS011;10997;52.242;8.168;2022-10-16T23:13:57;10.25;;;9.20;;
21671;SDS011;10997;52.242;8.168;2022-10-16T23:18:57;10.00;;;8.93;;
21671;SDS011;10997;52.242;8.168;2022-10-16T23:23:58;9.90;;;8.82;;
21671;SDS011;10997;52.242;8.168;2022-10-16T23:28:59;13.43;;;9.35;;
21671;SDS011;10997;52.242;8.168;2022-10-16T23:34:00;9.85;;;8.95;;
21671;SDS011;10997;52.242;8.168;2022-10-16T23:39:01;10.05;;;8.98;;
21671;SDS011;10997;52.242;8.168;2022-10-16T23:44:02;9.75;;;8.75;;
21671;SDS011;10997;52.242;8.168;2022-10-16T23:49:03;11.23;;;8.50;;
21671;SDS011;10997;52.242;8.168;2022-10-16T23:54:04;10.52;;;7.85;;
21671;SDS011;10997;52.242;8.168;2022-10-16T23:59:05;11.50;;;9.70;;
